Phoenix, AZ (85083)

7:53 PM MST on July 30, 2016 (GMT -0700)
Arizona Hillcrest | | Change Station

Elev 1470 ft 33.73 °N, 112.13 °W | Updated 9 minutes ago

Clear
Clear
95.9 °F
Feels Like 97 °F
N
1.1
Wind Variable Wind from SW

Today
High -- | Low -- °F
--% Chance of Precip.
Yesterday
High -- | Low -- °F
Precip. -- in
Pressure 29.68 in
Visibility 10.0 miles
Clouds Clear
Heat Index 97 °F
Dew Point 62 °F
Humidity 33%
Rainfall 0.00 in
Snow Depth Not available.
5:39 AM 7:29 PM
Waning Crescent, 9% visible
METAR KDVT 310153Z 21011KT 10SM CLR 37/16 A2976 RMK AO2 SLP048 T03670156
Pressure 29.68 in
Visibility 10.0 miles
Clouds Clear
Heat Index 97 °F
Dew Point 62 °F
Humidity 33%
Rainfall 0.00 in
Snow Depth Not available.
5:39 AM 7:29 PM
Waning Crescent, 9% visible
METAR KDVT 310153Z 21011KT 10SM CLR 37/16 A2976 RMK AO2 SLP048 T03670156

10-Day Weather Forecast

Almanac

Astronomy

Jul. 30, 2016 Rise Set
Actual Time
Civil Twilight
Nautical Twilight
Astronomical Twilight
Moon
Length of Visible Light
Length of Day
Tomorrow will be .
, % of the Moon is Illuminated

Today's Extremes

State Highs State Lows

Community

WunderPhotos

Upload Photos

1,928,715 photos uploaded!

WunderBlog® & News

Nearby

Air Quality

  Air Quality AQ Index Pollutant
Not available.

Snow Depth

Station Depth Elevation

Earthquake Activity

City Distance Mag. Time & Date
Minimum magnitude displayed is 2.5.

Coastal Water Temperatures

Place Temperature

Stations

Nearby Weather Stations

Station Location Temp. Windchill Dew Point Humidity Wind Precip. Elev Updated Type
                   

Watches & Warnings

There are currently no watches in effect.